sensor_id;sensor_type;location;lat;lon;timestamp;P1;durP1;ratioP1;P2;durP2;ratioP2
14760;SDS011;7472;45.396;5.272;2022-07-29T00:01:21;7.95;;;2.10;;
14760;SDS011;7472;45.396;5.272;2022-07-29T00:03:48;4.20;;;1.50;;
14760;SDS011;7472;45.396;5.272;2022-07-29T00:06:15;4.30;;;1.70;;
14760;SDS011;7472;45.396;5.272;2022-07-29T00:08:43;3.42;;;1.42;;
14760;SDS011;7472;45.396;5.272;2022-07-29T00:11:10;5.38;;;1.65;;
14760;SDS011;7472;45.396;5.272;2022-07-29T00:13:37;3.35;;;1.38;;
14760;SDS011;7472;45.396;5.272;2022-07-29T00:16:05;1.33;;;1.02;;
14760;SDS011;7472;45.396;5.272;2022-07-29T00:18:34;4.68;;;1.77;;
14760;SDS011;7472;45.396;5.272;2022-07-29T00:21:01;2.95;;;2.10;;
14760;SDS011;7472;45.396;5.272;2022-07-29T00:23:28;2.70;;;2.20;;
14760;SDS011;7472;45.396;5.272;2022-07-29T00:25:56;6.28;;;2.60;;
14760;SDS011;7472;45.396;5.272;2022-07-29T00:28:23;4.43;;;2.40;;
14760;SDS011;7472;45.396;5.272;2022-07-29T00:30:50;2.97;;;2.38;;
14760;SDS011;7472;45.396;5.272;2022-07-29T00:33:18;6.07;;;2.55;;
14760;SDS011;7472;45.396;5.272;2022-07-29T00:35:47;3.33;;;2.28;;
14760;SDS011;7472;45.396;5.272;2022-07-29T00:38:13;2.50;;;2.25;;
14760;SDS011;7472;45.396;5.272;2022-07-29T00:40:41;2.13;;;1.98;;
14760;SDS011;7472;45.396;5.272;2022-07-29T00:43:09;4.53;;;2.78;;
14760;SDS011;7472;45.396;5.272;2022-07-29T00:45:37;3.85;;;2.40;;
14760;SDS011;7472;45.396;5.272;2022-07-29T00:48:04;4.10;;;3.00;;
14760;SDS011;7472;45.396;5.272;2022-07-29T00:50:33;9.80;;;3.10;;
14760;SDS011;7472;45.396;5.272;2022-07-29T00:53:03;5.95;;;2.80;;
14760;SDS011;7472;45.396;5.272;2022-07-29T00:55:30;6.25;;;3.10;;
14760;SDS011;7472;45.396;5.272;2022-07-29T00:57:58;4.63;;;2.97;;
14760;SDS011;7472;45.396;5.272;2022-07-29T01:00:26;4.53;;;2.47;;
14760;SDS011;7472;45.396;5.272;2022-07-29T01:02:54;5.40;;;2.92;;
14760;SDS011;7472;45.396;5.272;2022-07-29T01:05:21;4.78;;;2.90;;
14760;SDS011;7472;45.396;5.272;2022-07-29T01:07:51;7.35;;;2.33;;
14760;SDS011;7472;45.396;5.272;2022-07-29T01:10:20;3.80;;;2.10;;
14760;SDS011;7472;45.396;5.272;2022-07-29T01:12:49;2.88;;;2.17;;
14760;SDS011;7472;45.396;5.272;2022-07-29T01:15:17;2.83;;;2.00;;
14760;SDS011;7472;45.396;5.272;2022-07-29T01:17:44;2.80;;;2.08;;
14760;SDS011;7472;45.396;5.272;2022-07-29T01:20:14;3.17;;;2.40;;
14760;SDS011;7472;45.396;5.272;2022-07-29T01:22:47;3.50;;;2.40;;
14760;SDS011;7472;45.396;5.272;2022-07-29T01:25:23;1.67;;;1.58;;
14760;SDS011;7472;45.396;5.272;2022-07-29T01:27:59;7.50;;;2.55;;
14760;SDS011;7472;45.396;5.272;2022-07-29T01:30:30;2.35;;;1.75;;
14760;SDS011;7472;45.396;5.272;2022-07-29T01:32:58;4.97;;;2.17;;
14760;SDS011;7472;45.396;5.272;2022-07-29T01:35:28;4.38;;;1.95;;
14760;SDS011;7472;45.396;5.272;2022-07-29T01:38:01;4.25;;;2.22;;
14760;SDS011;7472;45.396;5.272;2022-07-29T01:40:33;2.50;;;1.80;;
14760;SDS011;7472;45.396;5.272;2022-07-29T01:43:03;3.17;;;1.95;;
14760;SDS011;7472;45.396;5.272;2022-07-29T01:45:37;6.88;;;2.35;;
14760;SDS011;7472;45.396;5.272;2022-07-29T01:48:06;7.97;;;1.85;;
14760;SDS011;7472;45.396;5.272;2022-07-29T01:50:38;4.00;;;1.30;;
14760;SDS011;7472;45.396;5.272;2022-07-29T01:53:08;6.00;;;1.65;;
14760;SDS011;7472;45.396;5.272;2022-07-29T01:55:36;2.70;;;1.40;;
14760;SDS011;7472;45.396;5.272;2022-07-29T01:58:05;2.65;;;1.67;;
14760;SDS011;7472;45.396;5.272;2022-07-29T02:00:35;2.35;;;1.67;;
14760;SDS011;7472;45.396;5.272;2022-07-29T02:03:04;2.85;;;1.48;;
14760;SDS011;7472;45.396;5.272;2022-07-29T02:05:32;3.00;;;1.75;;
14760;SDS011;7472;45.396;5.272;2022-07-29T02:08:01;1.85;;;1.48;;
14760;SDS011;7472;45.396;5.272;2022-07-29T02:10:29;3.00;;;1.33;;
14760;SDS011;7472;45.396;5.272;2022-07-29T02:12:58;4.75;;;1.35;;
14760;SDS011;7472;45.396;5.272;2022-07-29T02:15:27;1.95;;;1.30;;
14760;SDS011;7472;45.396;5.272;2022-07-29T02:17:58;4.97;;;1.70;;
14760;SDS011;7472;45.396;5.272;2022-07-29T02:20:27;2.75;;;1.38;;
14760;SDS011;7472;45.396;5.272;2022-07-29T02:22:55;1.65;;;1.52;;
14760;SDS011;7472;45.396;5.272;2022-07-29T02:25:23;1.98;;;1.48;;
14760;SDS011;7472;45.396;5.272;2022-07-29T02:27:51;2.00;;;1.35;;
14760;SDS011;7472;45.396;5.272;2022-07-29T02:30:19;5.55;;;1.33;;
14760;SDS011;7472;45.396;5.272;2022-07-29T02:32:48;3.47;;;1.60;;
14760;SDS011;7472;45.396;5.272;2022-07-29T02:35:17;4.43;;;1.80;;
14760;SDS011;7472;45.396;5.272;2022-07-29T02:37:45;3.40;;;1.50;;
14760;SDS011;7472;45.396;5.272;2022-07-29T02:40:33;4.03;;;1.83;;
14760;SDS011;7472;45.396;5.272;2022-07-29T02:43:01;2.80;;;1.70;;
14760;SDS011;7472;45.396;5.272;2022-07-29T02:45:29;2.90;;;1.50;;
14760;SDS011;7472;45.396;5.272;2022-07-29T02:47:57;2.45;;;1.52;;
14760;SDS011;7472;45.396;5.272;2022-07-29T02:50:28;2.50;;;1.38;;
14760;SDS011;7472;45.396;5.272;2022-07-29T02:52:58;4.13;;;1.75;;
14760;SDS011;7472;45.396;5.272;2022-07-29T02:55:28;3.17;;;1.25;;
14760;SDS011;7472;45.396;5.272;2022-07-29T02:57:58;2.80;;;1.67;;
14760;SDS011;7472;45.396;5.272;2022-07-29T03:00:27;2.28;;;1.65;;
14760;SDS011;7472;45.396;5.272;2022-07-29T03:02:55;4.25;;;1.70;;
14760;SDS011;7472;45.396;5.272;2022-07-29T03:05:23;4.50;;;1.58;;
14760;SDS011;7472;45.396;5.272;2022-07-29T03:07:54;5.00;;;1.65;;
14760;SDS011;7472;45.396;5.272;2022-07-29T03:10:22;3.83;;;1.70;;
14760;SDS011;7472;45.396;5.272;2022-07-29T03:12:50;3.53;;;1.85;;
14760;SDS011;7472;45.396;5.272;2022-07-29T03:15:18;3.78;;;1.92;;
14760;SDS011;7472;45.396;5.272;2022-07-29T03:17:46;3.58;;;1.88;;
14760;SDS011;7472;45.396;5.272;2022-07-29T03:20:13;1.90;;;1.65;;
14760;SDS011;7472;45.396;5.272;2022-07-29T03:22:42;2.13;;;1.50;;
14760;SDS011;7472;45.396;5.272;2022-07-29T03:25:14;2.40;;;1.60;;
14760;SDS011;7472;45.396;5.272;2022-07-29T03:27:41;8.68;;;1.88;;
14760;SDS011;7472;45.396;5.272;2022-07-29T03:30:09;1.85;;;1.33;;
14760;SDS011;7472;45.396;5.272;2022-07-29T03:32:37;2.13;;;1.48;;
14760;SDS011;7472;45.396;5.272;2022-07-29T03:35:05;3.15;;;1.80;;
14760;SDS011;7472;45.396;5.272;2022-07-29T03:37:33;3.35;;;1.60;;
14760;SDS011;7472;45.396;5.272;2022-07-29T03:40:02;4.80;;;1.63;;
14760;SDS011;7472;45.396;5.272;2022-07-29T03:42:31;1.63;;;1.30;;
14760;SDS011;7472;45.396;5.272;2022-07-29T03:45:00;2.95;;;1.73;;
14760;SDS011;7472;45.396;5.272;2022-07-29T03:47:28;3.67;;;1.63;;
14760;SDS011;7472;45.396;5.272;2022-07-29T03:49:59;2.85;;;1.20;;
14760;SDS011;7472;45.396;5.272;2022-07-29T03:52:26;2.90;;;1.60;;
14760;SDS011;7472;45.396;5.272;2022-07-29T03:54:54;3.40;;;1.48;;
14760;SDS011;7472;45.396;5.272;2022-07-29T03:57:23;2.00;;;1.42;;
14760;SDS011;7472;45.396;5.272;2022-07-29T03:59:52;4.72;;;1.75;;
14760;SDS011;7472;45.396;5.272;2022-07-29T04:02:20;5.75;;;1.67;;
14760;SDS011;7472;45.396;5.272;2022-07-29T04:04:47;6.97;;;1.55;;
14760;SDS011;7472;45.396;5.272;2022-07-29T04:07:15;3.03;;;1.58;;
14760;SDS011;7472;45.396;5.272;2022-07-29T04:09:42;2.17;;;1.50;;
14760;SDS011;7472;45.396;5.272;2022-07-29T04:12:10;3.90;;;1.33;;
14760;SDS011;7472;45.396;5.272;2022-07-29T04:14:37;3.92;;;1.63;;
14760;SDS011;7472;45.396;5.272;2022-07-29T04:17:06;4.35;;;1.48;;
14760;SDS011;7472;45.396;5.272;2022-07-29T04:19:33;5.35;;;1.98;;
14760;SDS011;7472;45.396;5.272;2022-07-29T04:22:01;5.05;;;1.67;;
14760;SDS011;7472;45.396;5.272;2022-07-29T04:24:28;2.45;;;1.75;;
14760;SDS011;7472;45.396;5.272;2022-07-29T04:26:56;3.58;;;1.83;;
14760;SDS011;7472;45.396;5.272;2022-07-29T04:29:23;6.30;;;2.13;;
14760;SDS011;7472;45.396;5.272;2022-07-29T04:31:50;4.22;;;1.50;;
14760;SDS011;7472;45.396;5.272;2022-07-29T04:34:19;6.03;;;2.30;;
14760;SDS011;7472;45.396;5.272;2022-07-29T04:36:46;2.50;;;1.60;;
14760;SDS011;7472;45.396;5.272;2022-07-29T04:39:14;2.25;;;1.55;;
14760;SDS011;7472;45.396;5.272;2022-07-29T04:41:43;1.63;;;1.40;;
14760;SDS011;7472;45.396;5.272;2022-07-29T04:44:10;1.63;;;1.42;;
14760;SDS011;7472;45.396;5.272;2022-07-29T04:46:37;4.03;;;1.65;;
14760;SDS011;7472;45.396;5.272;2022-07-29T04:49:05;5.00;;;1.83;;
14760;SDS011;7472;45.396;5.272;2022-07-29T04:51:34;7.10;;;1.80;;
14760;SDS011;7472;45.396;5.272;2022-07-29T04:54:01;2.47;;;1.50;;
14760;SDS011;7472;45.396;5.272;2022-07-29T04:56:29;2.20;;;1.60;;
14760;SDS011;7472;45.396;5.272;2022-07-29T04:58:56;4.90;;;2.03;;
14760;SDS011;7472;45.396;5.272;2022-07-29T05:01:23;3.72;;;1.60;;
14760;SDS011;7472;45.396;5.272;2022-07-29T05:03:51;2.30;;;1.63;;
14760;SDS011;7472;45.396;5.272;2022-07-29T05:06:18;4.47;;;1.85;;
14760;SDS011;7472;45.396;5.272;2022-07-29T05:08:47;2.00;;;1.80;;
14760;SDS011;7472;45.396;5.272;2022-07-29T05:11:14;4.00;;;1.67;;
14760;SDS011;7472;45.396;5.272;2022-07-29T05:13:42;2.17;;;1.92;;
14760;SDS011;7472;45.396;5.272;2022-07-29T05:16:09;5.13;;;2.10;;
14760;SDS011;7472;45.396;5.272;2022-07-29T05:18:36;5.80;;;1.90;;
14760;SDS011;7472;45.396;5.272;2022-07-29T05:21:04;2.80;;;1.50;;
14760;SDS011;7472;45.396;5.272;2022-07-29T05:23:31;4.22;;;1.70;;
14760;SDS011;7472;45.396;5.272;2022-07-29T05:26:00;2.28;;;1.65;;
14760;SDS011;7472;45.396;5.272;2022-07-29T05:28:27;4.25;;;1.98;;
14760;SDS011;7472;45.396;5.272;2022-07-29T05:30:55;4.47;;;1.73;;
14760;SDS011;7472;45.396;5.272;2022-07-29T05:33:22;5.60;;;1.90;;
14760;SDS011;7472;45.396;5.272;2022-07-29T05:35:50;4.05;;;1.30;;
14760;SDS011;7472;45.396;5.272;2022-07-29T05:38:17;3.47;;;1.70;;
14760;SDS011;7472;45.396;5.272;2022-07-29T05:40:44;5.15;;;1.92;;
14760;SDS011;7472;45.396;5.272;2022-07-29T05:43:13;2.65;;;1.60;;
14760;SDS011;7472;45.396;5.272;2022-07-29T05:45:40;5.35;;;1.80;;
14760;SDS011;7472;45.396;5.272;2022-07-29T05:48:08;2.63;;;1.92;;
14760;SDS011;7472;45.396;5.272;2022-07-29T05:50:35;8.18;;;1.98;;
14760;SDS011;7472;45.396;5.272;2022-07-29T05:53:02;7.63;;;2.38;;
14760;SDS011;7472;45.396;5.272;2022-07-29T05:55:30;4.18;;;2.35;;
14760;SDS011;7472;45.396;5.272;2022-07-29T05:57:57;4.38;;;2.22;;
14760;SDS011;7472;45.396;5.272;2022-07-29T06:00:26;9.18;;;2.13;;
14760;SDS011;7472;45.396;5.272;2022-07-29T06:02:54;5.10;;;2.00;;
14760;SDS011;7472;45.396;5.272;2022-07-29T06:05:21;4.18;;;2.05;;
14760;SDS011;7472;45.396;5.272;2022-07-29T06:07:49;5.43;;;1.90;;
14760;SDS011;7472;45.396;5.272;2022-07-29T06:10:16;4.78;;;1.70;;
14760;SDS011;7472;45.396;5.272;2022-07-29T06:12:44;7.85;;;2.15;;
14760;SDS011;7472;45.396;5.272;2022-07-29T06:15:11;4.05;;;1.90;;
14760;SDS011;7472;45.396;5.272;2022-07-29T06:17:40;3.58;;;2.40;;
14760;SDS011;7472;45.396;5.272;2022-07-29T06:20:08;5.40;;;2.67;;
14760;SDS011;7472;45.396;5.272;2022-07-29T06:22:35;2.97;;;2.30;;
14760;SDS011;7472;45.396;5.272;2022-07-29T06:25:03;6.45;;;2.30;;
14760;SDS011;7472;45.396;5.272;2022-07-29T06:27:30;3.92;;;1.92;;
14760;SDS011;7472;45.396;5.272;2022-07-29T06:29:57;5.50;;;2.13;;
14760;SDS011;7472;45.396;5.272;2022-07-29T06:32:26;4.00;;;2.10;;
14760;SDS011;7472;45.396;5.272;2022-07-29T06:34:55;5.07;;;2.28;;
14760;SDS011;7472;45.396;5.272;2022-07-29T06:37:23;3.63;;;2.08;;
14760;SDS011;7472;45.396;5.272;2022-07-29T06:39:50;2.53;;;1.42;;
14760;SDS011;7472;45.396;5.272;2022-07-29T06:42:41;7.90;;;2.03;;
14760;SDS011;7472;45.396;5.272;2022-07-29T06:45:09;2.05;;;1.85;;
14760;SDS011;7472;45.396;5.272;2022-07-29T06:47:37;4.65;;;1.83;;
14760;SDS011;7472;45.396;5.272;2022-07-29T06:50:06;4.68;;;2.00;;
14760;SDS011;7472;45.396;5.272;2022-07-29T06:52:36;3.00;;;1.77;;
14760;SDS011;7472;45.396;5.272;2022-07-29T06:55:04;3.97;;;1.83;;
14760;SDS011;7472;45.396;5.272;2022-07-29T06:57:32;11.55;;;2.13;;
14760;SDS011;7472;45.396;5.272;2022-07-29T06:59:59;9.77;;;1.90;;
14760;SDS011;7472;45.396;5.272;2022-07-29T07:02:29;3.38;;;2.15;;
14760;SDS011;7472;45.396;5.272;2022-07-29T07:04:57;4.97;;;1.85;;
14760;SDS011;7472;45.396;5.272;2022-07-29T07:07:26;4.63;;;1.95;;
14760;SDS011;7472;45.396;5.272;2022-07-29T07:09:53;6.03;;;1.85;;
14760;SDS011;7472;45.396;5.272;2022-07-29T07:12:21;1.77;;;1.67;;
14760;SDS011;7472;45.396;5.272;2022-07-29T07:14:48;5.68;;;1.80;;
14760;SDS011;7472;45.396;5.272;2022-07-29T07:17:16;2.88;;;1.70;;
14760;SDS011;7472;45.396;5.272;2022-07-29T07:19:43;6.32;;;1.52;;
14760;SDS011;7472;45.396;5.272;2022-07-29T07:22:11;5.00;;;2.03;;
14760;SDS011;7472;45.396;5.272;2022-07-29T07:24:40;6.97;;;2.08;;
14760;SDS011;7472;45.396;5.272;2022-07-29T07:27:07;4.25;;;2.20;;
14760;SDS011;7472;45.396;5.272;2022-07-29T07:29:34;4.88;;;2.10;;
14760;SDS011;7472;45.396;5.272;2022-07-29T07:32:02;4.38;;;2.08;;
14760;SDS011;7472;45.396;5.272;2022-07-29T07:34:29;5.63;;;2.65;;
14760;SDS011;7472;45.396;5.272;2022-07-29T07:36:57;3.78;;;1.88;;
14760;SDS011;7472;45.396;5.272;2022-07-29T07:39:24;2.95;;;1.67;;
14760;SDS011;7472;45.396;5.272;2022-07-29T07:41:53;8.73;;;2.15;;
14760;SDS011;7472;45.396;5.272;2022-07-29T07:44:21;6.25;;;2.20;;
14760;SDS011;7472;45.396;5.272;2022-07-29T07:46:48;10.20;;;3.20;;
14760;SDS011;7472;45.396;5.272;2022-07-29T07:49:15;6.32;;;2.30;;
14760;SDS011;7472;45.396;5.272;2022-07-29T07:51:43;6.00;;;2.08;;
14760;SDS011;7472;45.396;5.272;2022-07-29T07:54:10;8.60;;;2.05;;
14760;SDS011;7472;45.396;5.272;2022-07-29T07:56:38;4.07;;;1.65;;
14760;SDS011;7472;45.396;5.272;2022-07-29T07:59:06;3.28;;;2.08;;
14760;SDS011;7472;45.396;5.272;2022-07-29T08:01:34;4.03;;;1.52;;
14760;SDS011;7472;45.396;5.272;2022-07-29T08:04:01;5.03;;;1.88;;
14760;SDS011;7472;45.396;5.272;2022-07-29T08:06:28;3.53;;;1.90;;
14760;SDS011;7472;45.396;5.272;2022-07-29T08:08:56;7.45;;;2.08;;
14760;SDS011;7472;45.396;5.272;2022-07-29T08:11:23;7.65;;;1.98;;
14760;SDS011;7472;45.396;5.272;2022-07-29T08:13:50;5.53;;;2.15;;
14760;SDS011;7472;45.396;5.272;2022-07-29T08:16:19;7.78;;;2.65;;
14760;SDS011;7472;45.396;5.272;2022-07-29T08:18:47;4.70;;;2.10;;
14760;SDS011;7472;45.396;5.272;2022-07-29T08:21:14;8.00;;;2.60;;
14760;SDS011;7472;45.396;5.272;2022-07-29T08:23:43;8.57;;;2.80;;
14760;SDS011;7472;45.396;5.272;2022-07-29T08:26:14;10.50;;;2.67;;
14760;SDS011;7472;45.396;5.272;2022-07-29T08:28:42;4.20;;;1.95;;
14760;SDS011;7472;45.396;5.272;2022-07-29T08:31:10;8.48;;;2.50;;
14760;SDS011;7472;45.396;5.272;2022-07-29T08:33:39;7.18;;;2.50;;
14760;SDS011;7472;45.396;5.272;2022-07-29T08:36:07;9.27;;;3.60;;
14760;SDS011;7472;45.396;5.272;2022-07-29T08:38:34;9.25;;;4.03;;
14760;SDS011;7472;45.396;5.272;2022-07-29T08:41:02;8.13;;;3.60;;
14760;SDS011;7472;45.396;5.272;2022-07-29T08:43:29;10.93;;;3.15;;
14760;SDS011;7472;45.396;5.272;2022-07-29T08:45:57;9.07;;;3.50;;
14760;SDS011;7472;45.396;5.272;2022-07-29T08:48:24;6.88;;;3.40;;
14760;SDS011;7472;45.396;5.272;2022-07-29T08:50:54;9.07;;;3.22;;
14760;SDS011;7472;45.396;5.272;2022-07-29T08:53:21;8.90;;;3.17;;
14760;SDS011;7472;45.396;5.272;2022-07-29T08:55:51;8.48;;;2.58;;
14760;SDS011;7472;45.396;5.272;2022-07-29T08:58:19;5.18;;;3.53;;
14760;SDS011;7472;45.396;5.272;2022-07-29T09:00:50;7.90;;;2.88;;
14760;SDS011;7472;45.396;5.272;2022-07-29T09:03:18;3.13;;;2.65;;
14760;SDS011;7472;45.396;5.272;2022-07-29T09:05:46;7.35;;;3.28;;
14760;SDS011;7472;45.396;5.272;2022-07-29T09:08:16;5.32;;;3.28;;
14760;SDS011;7472;45.396;5.272;2022-07-29T09:10:44;9.35;;;3.03;;
14760;SDS011;7472;45.396;5.272;2022-07-29T09:13:12;6.78;;;2.92;;
14760;SDS011;7472;45.396;5.272;2022-07-29T09:15:39;5.68;;;3.55;;
14760;SDS011;7472;45.396;5.272;2022-07-29T09:18:06;6.15;;;3.47;;
14760;SDS011;7472;45.396;5.272;2022-07-29T09:20:34;4.05;;;3.63;;
14760;SDS011;7472;45.396;5.272;2022-07-29T09:23:20;5.90;;;3.28;;
14760;SDS011;7472;45.396;5.272;2022-07-29T09:25:48;5.45;;;4.22;;
14760;SDS011;7472;45.396;5.272;2022-07-29T09:28:15;5.15;;;4.40;;
14760;SDS011;7472;45.396;5.272;2022-07-29T09:30:49;8.55;;;4.75;;
14760;SDS011;7472;45.396;5.272;2022-07-29T09:33:17;7.55;;;4.70;;
14760;SDS011;7472;45.396;5.272;2022-07-29T09:35:45;10.95;;;5.32;;
14760;SDS011;7472;45.396;5.272;2022-07-29T09:38:12;5.97;;;5.47;;
14760;SDS011;7472;45.396;5.272;2022-07-29T09:40:42;10.38;;;5.35;;
14760;SDS011;7472;45.396;5.272;2022-07-29T09:43:22;6.95;;;5.00;;
14760;SDS011;7472;45.396;5.272;2022-07-29T09:45:50;7.00;;;5.25;;
14760;SDS011;7472;45.396;5.272;2022-07-29T09:48:18;8.35;;;4.97;;
14760;SDS011;7472;45.396;5.272;2022-07-29T09:50:46;9.75;;;6.10;;
14760;SDS011;7472;45.396;5.272;2022-07-29T09:53:29;7.03;;;4.88;;
14760;SDS011;7472;45.396;5.272;2022-07-29T09:55:58;9.98;;;6.00;;
14760;SDS011;7472;45.396;5.272;2022-07-29T09:58:25;8.10;;;6.40;;
14760;SDS011;7472;45.396;5.272;2022-07-29T10:00:53;7.30;;;5.80;;
14760;SDS011;7472;45.396;5.272;2022-07-29T10:03:21;7.60;;;5.68;;
14760;SDS011;7472;45.396;5.272;2022-07-29T10:06:03;8.40;;;6.30;;
14760;SDS011;7472;45.396;5.272;2022-07-29T10:08:31;5.97;;;5.20;;
14760;SDS011;7472;45.396;5.272;2022-07-29T10:11:08;8.13;;;4.82;;
14760;SDS011;7472;45.396;5.272;2022-07-29T10:13:36;8.63;;;5.32;;
14760;SDS011;7472;45.396;5.272;2022-07-29T10:16:04;7.65;;;4.80;;
14760;SDS011;7472;45.396;5.272;2022-07-29T10:18:31;8.38;;;4.97;;
14760;SDS011;7472;45.396;5.272;2022-07-29T10:20:59;5.20;;;4.28;;
14760;SDS011;7472;45.396;5.272;2022-07-29T10:23:27;6.65;;;4.95;;
14760;SDS011;7472;45.396;5.272;2022-07-29T10:25:55;6.32;;;4.90;;
14760;SDS011;7472;45.396;5.272;2022-07-29T10:28:24;6.30;;;4.90;;
14760;SDS011;7472;45.396;5.272;2022-07-29T10:30:51;6.03;;;4.95;;
14760;SDS011;7472;45.396;5.272;2022-07-29T10:33:27;5.65;;;3.38;;
14760;SDS011;7472;45.396;5.272;2022-07-29T10:36:02;6.07;;;4.47;;
14760;SDS011;7472;45.396;5.272;2022-07-29T10:38:47;3.92;;;3.45;;
14760;SDS011;7472;45.396;5.272;2022-07-29T10:41:23;3.92;;;3.45;;
14760;SDS011;7472;45.396;5.272;2022-07-29T10:44:01;4.05;;;3.33;;
14760;SDS011;7472;45.396;5.272;2022-07-29T10:46:33;4.63;;;4.10;;
14760;SDS011;7472;45.396;5.272;2022-07-29T10:49:05;4.00;;;3.60;;
14760;SDS011;7472;45.396;5.272;2022-07-29T10:51:51;5.07;;;3.60;;
14760;SDS011;7472;45.396;5.272;2022-07-29T10:54:36;4.00;;;3.60;;
14760;SDS011;7472;45.396;5.272;2022-07-29T10:57:10;4.90;;;4.47;;
14760;SDS011;7472;45.396;5.272;2022-07-29T10:59:39;5.40;;;4.78;;
14760;SDS011;7472;45.396;5.272;2022-07-29T11:04:58;5.65;;;4.80;;
14760;SDS011;7472;45.396;5.272;2022-07-29T11:07:26;7.20;;;4.53;;
14760;SDS011;7472;45.396;5.272;2022-07-29T11:12:46;6.88;;;4.20;;
14760;SDS011;7472;45.396;5.272;2022-07-29T11:15:16;5.15;;;4.65;;
14760;SDS011;7472;45.396;5.272;2022-07-29T11:18:03;5.32;;;3.95;;
14760;SDS011;7472;45.396;5.272;2022-07-29T11:20:30;5.80;;;4.53;;
14760;SDS011;7472;45.396;5.272;2022-07-29T11:22:58;5.93;;;4.55;;
14760;SDS011;7472;45.396;5.272;2022-07-29T11:25:25;6.63;;;4.50;;
14760;SDS011;7472;45.396;5.272;2022-07-29T11:27:53;4.75;;;4.35;;
14760;SDS011;7472;45.396;5.272;2022-07-29T11:30:22;5.47;;;4.97;;
14760;SDS011;7472;45.396;5.272;2022-07-29T11:36:06;5.35;;;4.57;;
14760;SDS011;7472;45.396;5.272;2022-07-29T11:38:34;6.07;;;4.78;;
14760;SDS011;7472;45.396;5.272;2022-07-29T11:41:20;6.10;;;4.53;;
14760;SDS011;7472;45.396;5.272;2022-07-29T11:43:49;6.57;;;4.35;;
14760;SDS011;7472;45.396;5.272;2022-07-29T11:46:19;4.60;;;4.05;;
14760;SDS011;7472;45.396;5.272;2022-07-29T11:49:07;8.00;;;5.07;;
14760;SDS011;7472;45.396;5.272;2022-07-29T11:51:34;4.70;;;4.30;;
14760;SDS011;7472;45.396;5.272;2022-07-29T11:54:02;10.38;;;4.28;;
14760;SDS011;7472;45.396;5.272;2022-07-29T11:56:29;4.22;;;3.83;;
14760;SDS011;7472;45.396;5.272;2022-07-29T11:59:02;4.60;;;4.07;;
14760;SDS011;7472;45.396;5.272;2022-07-29T12:01:32;5.93;;;3.95;;
14760;SDS011;7472;45.396;5.272;2022-07-29T12:04:03;6.18;;;3.92;;
14760;SDS011;7472;45.396;5.272;2022-07-29T12:06:31;6.40;;;4.20;;
14760;SDS011;7472;45.396;5.272;2022-07-29T12:08:59;3.85;;;3.55;;
14760;SDS011;7472;45.396;5.272;2022-07-29T12:11:26;6.53;;;3.50;;
14760;SDS011;7472;45.396;5.272;2022-07-29T12:13:54;4.50;;;3.92;;
14760;SDS011;7472;45.396;5.272;2022-07-29T12:16:21;4.93;;;4.00;;
14760;SDS011;7472;45.396;5.272;2022-07-29T12:18:56;4.45;;;3.67;;
14760;SDS011;7472;45.396;5.272;2022-07-29T12:21:23;7.00;;;4.45;;
14760;SDS011;7472;45.396;5.272;2022-07-29T12:23:54;4.60;;;4.05;;
14760;SDS011;7472;45.396;5.272;2022-07-29T12:26:21;5.38;;;3.20;;
14760;SDS011;7472;45.396;5.272;2022-07-29T12:28:49;5.78;;;4.20;;
14760;SDS011;7472;45.396;5.272;2022-07-29T12:31:16;4.78;;;4.00;;
14760;SDS011;7472;45.396;5.272;2022-07-29T12:33:43;3.92;;;3.50;;
14760;SDS011;7472;45.396;5.272;2022-07-29T12:36:20;4.03;;;3.63;;
14760;SDS011;7472;45.396;5.272;2022-07-29T12:38:47;4.38;;;3.50;;
14760;SDS011;7472;45.396;5.272;2022-07-29T12:41:15;4.93;;;3.03;;
14760;SDS011;7472;45.396;5.272;2022-07-29T12:43:51;4.60;;;3.42;;
14760;SDS011;7472;45.396;5.272;2022-07-29T12:46:19;4.25;;;2.92;;
14760;SDS011;7472;45.396;5.272;2022-07-29T12:48:49;3.70;;;3.40;;
14760;SDS011;7472;45.396;5.272;2022-07-29T12:51:29;3.63;;;2.83;;
14760;SDS011;7472;45.396;5.272;2022-07-29T12:54:03;3.95;;;3.42;;
14760;SDS011;7472;45.396;5.272;2022-07-29T12:56:32;4.60;;;3.63;;
14760;SDS011;7472;45.396;5.272;2022-07-29T12:58:59;4.25;;;3.67;;
14760;SDS011;7472;45.396;5.272;2022-07-29T13:01:27;4.15;;;2.88;;
14760;SDS011;7472;45.396;5.272;2022-07-29T13:04:03;5.43;;;3.80;;
14760;SDS011;7472;45.396;5.272;2022-07-29T13:06:33;4.10;;;3.00;;
14760;SDS011;7472;45.396;5.272;2022-07-29T13:09:01;5.70;;;3.35;;
14760;SDS011;7472;45.396;5.272;2022-07-29T13:11:30;5.40;;;4.13;;
14760;SDS011;7472;45.396;5.272;2022-07-29T13:13:58;3.97;;;3.53;;
14760;SDS011;7472;45.396;5.272;2022-07-29T13:16:25;4.05;;;3.50;;
14760;SDS011;7472;45.396;5.272;2022-07-29T13:19:05;3.28;;;2.95;;
14760;SDS011;7472;45.396;5.272;2022-07-29T13:21:35;3.35;;;3.00;;
14760;SDS011;7472;45.396;5.272;2022-07-29T13:24:03;3.40;;;2.95;;
14760;SDS011;7472;45.396;5.272;2022-07-29T13:26:31;3.92;;;2.60;;
14760;SDS011;7472;45.396;5.272;2022-07-29T13:28:58;3.15;;;2.45;;
14760;SDS011;7472;45.396;5.272;2022-07-29T13:31:26;2.70;;;2.50;;
14760;SDS011;7472;45.396;5.272;2022-07-29T13:33:53;3.50;;;2.20;;
14760;SDS011;7472;45.396;5.272;2022-07-29T13:36:21;2.35;;;2.15;;
14760;SDS011;7472;45.396;5.272;2022-07-29T13:38:50;2.45;;;2.25;;
14760;SDS011;7472;45.396;5.272;2022-07-29T13:41:17;2.72;;;2.30;;
14760;SDS011;7472;45.396;5.272;2022-07-29T13:43:44;3.97;;;2.38;;
14760;SDS011;7472;45.396;5.272;2022-07-29T13:46:12;3.17;;;2.17;;
14760;SDS011;7472;45.396;5.272;2022-07-29T13:48:39;2.10;;;1.90;;
14760;SDS011;7472;45.396;5.272;2022-07-29T13:51:07;2.50;;;1.90;;
14760;SDS011;7472;45.396;5.272;2022-07-29T13:53:34;2.47;;;1.73;;
14760;SDS011;7472;45.396;5.272;2022-07-29T13:56:03;3.05;;;2.20;;
14760;SDS011;7472;45.396;5.272;2022-07-29T13:58:32;2.33;;;2.13;;
14760;SDS011;7472;45.396;5.272;2022-07-29T14:00:59;1.88;;;1.73;;
14760;SDS011;7472;45.396;5.272;2022-07-29T14:03:26;2.38;;;2.10;;
14760;SDS011;7472;45.396;5.272;2022-07-29T14:05:54;4.43;;;2.35;;
14760;SDS011;7472;45.396;5.272;2022-07-29T14:08:24;6.00;;;2.45;;
14760;SDS011;7472;45.396;5.272;2022-07-29T14:10:52;2.45;;;2.22;;
14760;SDS011;7472;45.396;5.272;2022-07-29T14:13:21;5.88;;;2.22;;
14760;SDS011;7472;45.396;5.272;2022-07-29T14:15:48;3.15;;;2.38;;
14760;SDS011;7472;45.396;5.272;2022-07-29T14:18:15;4.68;;;2.70;;
14760;SDS011;7472;45.396;5.272;2022-07-29T14:20:43;3.28;;;2.28;;
14760;SDS011;7472;45.396;5.272;2022-07-29T14:23:10;2.38;;;2.17;;
14760;SDS011;7472;45.396;5.272;2022-07-29T14:25:37;2.22;;;2.00;;
14760;SDS011;7472;45.396;5.272;2022-07-29T14:28:05;2.17;;;1.80;;
14760;SDS011;7472;45.396;5.272;2022-07-29T14:30:33;2.30;;;2.10;;
14760;SDS011;7472;45.396;5.272;2022-07-29T14:33:01;3.22;;;2.08;;
14760;SDS011;7472;45.396;5.272;2022-07-29T14:35:28;2.20;;;2.00;;
14760;SDS011;7472;45.396;5.272;2022-07-29T14:37:56;2.30;;;2.08;;
14760;SDS011;7472;45.396;5.272;2022-07-29T14:40:23;2.10;;;1.90;;
14760;SDS011;7472;45.396;5.272;2022-07-29T14:42:51;2.40;;;2.00;;
14760;SDS011;7472;45.396;5.272;2022-07-29T14:45:18;2.13;;;1.48;;
14760;SDS011;7472;45.396;5.272;2022-07-29T14:47:47;1.80;;;1.70;;
14760;SDS011;7472;45.396;5.272;2022-07-29T14:50:15;2.85;;;1.40;;
14760;SDS011;7472;45.396;5.272;2022-07-29T14:52:43;2.17;;;1.50;;
14760;SDS011;7472;45.396;5.272;2022-07-29T14:55:10;2.38;;;1.65;;
14760;SDS011;7472;45.396;5.272;2022-07-29T14:57:38;1.40;;;1.30;;
14760;SDS011;7472;45.396;5.272;2022-07-29T15:00:05;1.42;;;1.27;;
14760;SDS011;7472;45.396;5.272;2022-07-29T15:02:33;1.85;;;1.50;;
14760;SDS011;7472;45.396;5.272;2022-07-29T15:05:02;1.65;;;1.50;;
14760;SDS011;7472;45.396;5.272;2022-07-29T15:07:30;1.67;;;1.35;;
14760;SDS011;7472;45.396;5.272;2022-07-29T15:09:57;1.58;;;1.48;;
14760;SDS011;7472;45.396;5.272;2022-07-29T15:12:24;3.55;;;1.55;;
14760;SDS011;7472;45.396;5.272;2022-07-29T15:14:52;1.40;;;1.30;;
14760;SDS011;7472;45.396;5.272;2022-07-29T15:17:20;1.60;;;1.50;;
14760;SDS011;7472;45.396;5.272;2022-07-29T15:19:47;2.17;;;1.58;;